sensor_id;sensor_type;location;lat;lon;timestamp;P1;durP1;ratioP1;P2;durP2;ratioP2
55186;SDS011;55457;52.002;5.464;2022-07-25T00:00:33;7.20;;;4.40;;
55186;SDS011;55457;52.002;5.464;2022-07-25T00:02:59;10.32;;;4.53;;
55186;SDS011;55457;52.002;5.464;2022-07-25T00:05:24;6.90;;;4.65;;
55186;SDS011;55457;52.002;5.464;2022-07-25T00:07:50;5.70;;;3.92;;
55186;SDS011;55457;52.002;5.464;2022-07-25T00:10:15;4.80;;;4.20;;
55186;SDS011;55457;52.002;5.464;2022-07-25T00:12:41;5.43;;;4.72;;
55186;SDS011;55457;52.002;5.464;2022-07-25T00:15:06;5.43;;;3.85;;
55186;SDS011;55457;52.002;5.464;2022-07-25T00:17:32;7.72;;;4.38;;
55186;SDS011;55457;52.002;5.464;2022-07-25T00:19:58;5.85;;;4.50;;
55186;SDS011;55457;52.002;5.464;2022-07-25T00:22:23;6.68;;;4.47;;
55186;SDS011;55457;52.002;5.464;2022-07-25T00:24:48;6.55;;;4.35;;
55186;SDS011;55457;52.002;5.464;2022-07-25T00:27:14;7.57;;;3.78;;
55186;SDS011;55457;52.002;5.464;2022-07-25T00:29:39;6.40;;;4.55;;
55186;SDS011;55457;52.002;5.464;2022-07-25T00:32:04;8.80;;;4.57;;
55186;SDS011;55457;52.002;5.464;2022-07-25T00:34:30;6.47;;;4.97;;
55186;SDS011;55457;52.002;5.464;2022-07-25T00:36:55;6.88;;;4.50;;
55186;SDS011;55457;52.002;5.464;2022-07-25T00:39:20;7.57;;;4.82;;
55186;SDS011;55457;52.002;5.464;2022-07-25T00:41:45;7.18;;;4.38;;
55186;SDS011;55457;52.002;5.464;2022-07-25T00:44:21;7.13;;;4.93;;
55186;SDS011;55457;52.002;5.464;2022-07-25T00:46:49;5.85;;;4.25;;
55186;SDS011;55457;52.002;5.464;2022-07-25T00:49:15;6.00;;;4.88;;
55186;SDS011;55457;52.002;5.464;2022-07-25T00:51:41;7.45;;;4.70;;
55186;SDS011;55457;52.002;5.464;2022-07-25T00:54:07;7.32;;;4.32;;
55186;SDS011;55457;52.002;5.464;2022-07-25T00:56:32;6.13;;;4.43;;
55186;SDS011;55457;52.002;5.464;2022-07-25T00:58:58;9.38;;;5.05;;
55186;SDS011;55457;52.002;5.464;2022-07-25T01:01:23;8.68;;;4.72;;
55186;SDS011;55457;52.002;5.464;2022-07-25T01:03:49;7.63;;;3.85;;
55186;SDS011;55457;52.002;5.464;2022-07-25T01:06:14;5.93;;;4.65;;
55186;SDS011;55457;52.002;5.464;2022-07-25T01:08:40;7.70;;;5.03;;
55186;SDS011;55457;52.002;5.464;2022-07-25T01:11:06;8.07;;;4.57;;
55186;SDS011;55457;52.002;5.464;2022-07-25T01:13:32;7.88;;;4.82;;
55186;SDS011;55457;52.002;5.464;2022-07-25T01:15:58;8.30;;;5.43;;
55186;SDS011;55457;52.002;5.464;2022-07-25T01:18:23;8.70;;;4.82;;
55186;SDS011;55457;52.002;5.464;2022-07-25T01:20:49;9.45;;;4.90;;
55186;SDS011;55457;52.002;5.464;2022-07-25T01:23:14;6.78;;;4.40;;
55186;SDS011;55457;52.002;5.464;2022-07-25T01:25:39;10.05;;;5.13;;
55186;SDS011;55457;52.002;5.464;2022-07-25T01:28:05;7.88;;;4.70;;
55186;SDS011;55457;52.002;5.464;2022-07-25T01:30:30;8.85;;;4.82;;
55186;SDS011;55457;52.002;5.464;2022-07-25T01:32:55;9.40;;;5.35;;
55186;SDS011;55457;52.002;5.464;2022-07-25T01:35:21;12.23;;;5.03;;
55186;SDS011;55457;52.002;5.464;2022-07-25T01:37:46;9.02;;;4.63;;
55186;SDS011;55457;52.002;5.464;2022-07-25T01:40:12;5.80;;;4.70;;
55186;SDS011;55457;52.002;5.464;2022-07-25T01:42:38;13.45;;;5.15;;
55186;SDS011;55457;52.002;5.464;2022-07-25T01:45:03;8.27;;;5.22;;
55186;SDS011;55457;52.002;5.464;2022-07-25T01:47:29;10.70;;;4.72;;
55186;SDS011;55457;52.002;5.464;2022-07-25T01:49:54;7.65;;;4.90;;
55186;SDS011;55457;52.002;5.464;2022-07-25T01:52:19;9.00;;;4.80;;
55186;SDS011;55457;52.002;5.464;2022-07-25T01:54:45;10.45;;;5.10;;
55186;SDS011;55457;52.002;5.464;2022-07-25T01:57:10;8.13;;;5.43;;
55186;SDS011;55457;52.002;5.464;2022-07-25T01:59:36;10.30;;;6.13;;
55186;SDS011;55457;52.002;5.464;2022-07-25T02:02:08;7.85;;;5.68;;
55186;SDS011;55457;52.002;5.464;2022-07-25T02:04:34;9.05;;;5.18;;
55186;SDS011;55457;52.002;5.464;2022-07-25T02:07:00;10.25;;;5.18;;
55186;SDS011;55457;52.002;5.464;2022-07-25T02:09:26;11.98;;;5.10;;
55186;SDS011;55457;52.002;5.464;2022-07-25T02:11:51;8.48;;;5.55;;
55186;SDS011;55457;52.002;5.464;2022-07-25T02:14:16;12.00;;;5.75;;
55186;SDS011;55457;52.002;5.464;2022-07-25T02:16:42;8.38;;;4.70;;
55186;SDS011;55457;52.002;5.464;2022-07-25T02:19:07;9.13;;;5.32;;
55186;SDS011;55457;52.002;5.464;2022-07-25T02:21:33;9.27;;;4.72;;
55186;SDS011;55457;52.002;5.464;2022-07-25T02:23:58;11.80;;;5.32;;
55186;SDS011;55457;52.002;5.464;2022-07-25T02:26:23;9.23;;;5.18;;
55186;SDS011;55457;52.002;5.464;2022-07-25T02:28:49;12.27;;;6.15;;
55186;SDS011;55457;52.002;5.464;2022-07-25T02:31:15;10.02;;;4.90;;
55186;SDS011;55457;52.002;5.464;2022-07-25T02:33:40;7.60;;;5.18;;
55186;SDS011;55457;52.002;5.464;2022-07-25T02:36:06;10.82;;;5.72;;
55186;SDS011;55457;52.002;5.464;2022-07-25T02:38:32;11.82;;;5.93;;
55186;SDS011;55457;52.002;5.464;2022-07-25T02:40:57;11.93;;;6.05;;
55186;SDS011;55457;52.002;5.464;2022-07-25T02:43:22;15.40;;;5.97;;
55186;SDS011;55457;52.002;5.464;2022-07-25T02:45:48;11.13;;;5.15;;
55186;SDS011;55457;52.002;5.464;2022-07-25T02:48:13;12.13;;;5.65;;
55186;SDS011;55457;52.002;5.464;2022-07-25T02:50:38;11.55;;;6.00;;
55186;SDS011;55457;52.002;5.464;2022-07-25T02:53:04;10.40;;;5.40;;
55186;SDS011;55457;52.002;5.464;2022-07-25T02:55:30;9.65;;;6.68;;
55186;SDS011;55457;52.002;5.464;2022-07-25T02:57:55;9.50;;;5.80;;
55186;SDS011;55457;52.002;5.464;2022-07-25T03:00:21;13.48;;;5.85;;
55186;SDS011;55457;52.002;5.464;2022-07-25T03:02:46;9.18;;;6.00;;
55186;SDS011;55457;52.002;5.464;2022-07-25T03:05:13;12.68;;;5.70;;
55186;SDS011;55457;52.002;5.464;2022-07-25T03:07:40;8.60;;;5.68;;
55186;SDS011;55457;52.002;5.464;2022-07-25T03:10:06;8.63;;;5.53;;
55186;SDS011;55457;52.002;5.464;2022-07-25T03:12:33;11.27;;;6.00;;
55186;SDS011;55457;52.002;5.464;2022-07-25T03:14:58;8.20;;;5.00;;
55186;SDS011;55457;52.002;5.464;2022-07-25T03:17:24;8.77;;;5.75;;
55186;SDS011;55457;52.002;5.464;2022-07-25T03:19:50;8.35;;;5.32;;
55186;SDS011;55457;52.002;5.464;2022-07-25T03:22:15;9.05;;;5.97;;
55186;SDS011;55457;52.002;5.464;2022-07-25T03:24:41;10.07;;;6.00;;
55186;SDS011;55457;52.002;5.464;2022-07-25T03:27:07;11.95;;;5.90;;
55186;SDS011;55457;52.002;5.464;2022-07-25T03:29:32;11.30;;;5.75;;
55186;SDS011;55457;52.002;5.464;2022-07-25T03:31:57;10.20;;;6.28;;
55186;SDS011;55457;52.002;5.464;2022-07-25T03:34:23;10.40;;;5.82;;
55186;SDS011;55457;52.002;5.464;2022-07-25T03:36:48;11.32;;;7.18;;
55186;SDS011;55457;52.002;5.464;2022-07-25T03:39:14;11.10;;;6.10;;
55186;SDS011;55457;52.002;5.464;2022-07-25T03:41:39;12.05;;;6.35;;
55186;SDS011;55457;52.002;5.464;2022-07-25T03:44:04;10.73;;;5.93;;
55186;SDS011;55457;52.002;5.464;2022-07-25T03:46:30;12.40;;;6.40;;
55186;SDS011;55457;52.002;5.464;2022-07-25T03:48:56;8.65;;;5.57;;
55186;SDS011;55457;52.002;5.464;2022-07-25T03:51:21;10.00;;;6.63;;
55186;SDS011;55457;52.002;5.464;2022-07-25T03:53:46;9.18;;;6.30;;
55186;SDS011;55457;52.002;5.464;2022-07-25T03:56:27;11.38;;;6.70;;
55186;SDS011;55457;52.002;5.464;2022-07-25T03:58:56;10.68;;;6.35;;
55186;SDS011;55457;52.002;5.464;2022-07-25T04:01:22;11.90;;;6.80;;
55186;SDS011;55457;52.002;5.464;2022-07-25T04:03:47;11.13;;;5.80;;
55186;SDS011;55457;52.002;5.464;2022-07-25T04:06:13;10.52;;;7.15;;
55186;SDS011;55457;52.002;5.464;2022-07-25T04:08:38;10.30;;;6.18;;
55186;SDS011;55457;52.002;5.464;2022-07-25T04:11:04;13.65;;;6.85;;
55186;SDS011;55457;52.002;5.464;2022-07-25T04:13:29;10.68;;;6.68;;
55186;SDS011;55457;52.002;5.464;2022-07-25T04:15:54;8.90;;;6.00;;
55186;SDS011;55457;52.002;5.464;2022-07-25T04:18:20;8.07;;;5.57;;
55186;SDS011;55457;52.002;5.464;2022-07-25T04:20:45;22.50;;;9.15;;
55186;SDS011;55457;52.002;5.464;2022-07-25T04:23:11;13.00;;;6.57;;
55186;SDS011;55457;52.002;5.464;2022-07-25T04:25:36;10.32;;;6.13;;
55186;SDS011;55457;52.002;5.464;2022-07-25T04:28:01;8.73;;;6.20;;
55186;SDS011;55457;52.002;5.464;2022-07-25T04:30:27;9.52;;;6.10;;
55186;SDS011;55457;52.002;5.464;2022-07-25T04:32:52;8.77;;;6.38;;
55186;SDS011;55457;52.002;5.464;2022-07-25T04:35:18;8.38;;;6.38;;
55186;SDS011;55457;52.002;5.464;2022-07-25T04:37:43;11.52;;;6.45;;
55186;SDS011;55457;52.002;5.464;2022-07-25T04:40:09;9.32;;;6.45;;
55186;SDS011;55457;52.002;5.464;2022-07-25T04:42:35;9.85;;;6.25;;
55186;SDS011;55457;52.002;5.464;2022-07-25T04:45:00;9.95;;;6.25;;
55186;SDS011;55457;52.002;5.464;2022-07-25T04:47:26;10.45;;;6.35;;
55186;SDS011;55457;52.002;5.464;2022-07-25T04:49:51;12.77;;;6.85;;
55186;SDS011;55457;52.002;5.464;2022-07-25T04:52:16;9.65;;;5.93;;
55186;SDS011;55457;52.002;5.464;2022-07-25T04:54:42;7.53;;;6.63;;
55186;SDS011;55457;52.002;5.464;2022-07-25T04:57:07;9.98;;;6.03;;
55186;SDS011;55457;52.002;5.464;2022-07-25T04:59:32;14.15;;;6.25;;
55186;SDS011;55457;52.002;5.464;2022-07-25T05:01:57;10.85;;;6.63;;
55186;SDS011;55457;52.002;5.464;2022-07-25T05:04:23;12.25;;;6.95;;
55186;SDS011;55457;52.002;5.464;2022-07-25T05:06:48;11.73;;;7.25;;
55186;SDS011;55457;52.002;5.464;2022-07-25T05:09:13;9.38;;;7.05;;
55186;SDS011;55457;52.002;5.464;2022-07-25T05:11:39;12.48;;;7.13;;
55186;SDS011;55457;52.002;5.464;2022-07-25T05:14:04;14.82;;;8.02;;
55186;SDS011;55457;52.002;5.464;2022-07-25T05:16:29;13.27;;;6.90;;
55186;SDS011;55457;52.002;5.464;2022-07-25T05:18:54;9.43;;;5.88;;
55186;SDS011;55457;52.002;5.464;2022-07-25T05:21:20;10.90;;;7.20;;
55186;SDS011;55457;52.002;5.464;2022-07-25T05:23:45;11.13;;;6.47;;
55186;SDS011;55457;52.002;5.464;2022-07-25T05:26:10;13.07;;;6.93;;
55186;SDS011;55457;52.002;5.464;2022-07-25T05:28:36;9.55;;;6.38;;
55186;SDS011;55457;52.002;5.464;2022-07-25T05:31:01;10.80;;;7.07;;
55186;SDS011;55457;52.002;5.464;2022-07-25T05:33:26;8.55;;;6.57;;
55186;SDS011;55457;52.002;5.464;2022-07-25T05:35:52;10.63;;;6.75;;
55186;SDS011;55457;52.002;5.464;2022-07-25T05:38:17;12.07;;;7.22;;
55186;SDS011;55457;52.002;5.464;2022-07-25T05:40:43;10.35;;;6.78;;
55186;SDS011;55457;52.002;5.464;2022-07-25T05:43:09;8.57;;;6.28;;
55186;SDS011;55457;52.002;5.464;2022-07-25T05:45:35;12.00;;;6.38;;
55186;SDS011;55457;52.002;5.464;2022-07-25T05:48:00;10.13;;;6.70;;
55186;SDS011;55457;52.002;5.464;2022-07-25T05:50:25;10.63;;;7.95;;
55186;SDS011;55457;52.002;5.464;2022-07-25T05:52:51;10.27;;;6.72;;
55186;SDS011;55457;52.002;5.464;2022-07-25T05:55:16;9.45;;;6.78;;
55186;SDS011;55457;52.002;5.464;2022-07-25T05:57:42;10.27;;;7.03;;
55186;SDS011;55457;52.002;5.464;2022-07-25T06:00:07;12.55;;;6.70;;
55186;SDS011;55457;52.002;5.464;2022-07-25T06:02:33;9.35;;;7.40;;
55186;SDS011;55457;52.002;5.464;2022-07-25T06:04:58;10.38;;;7.57;;
55186;SDS011;55457;52.002;5.464;2022-07-25T06:07:24;15.13;;;7.38;;
55186;SDS011;55457;52.002;5.464;2022-07-25T06:09:49;13.55;;;8.43;;
55186;SDS011;55457;52.002;5.464;2022-07-25T06:12:15;9.88;;;6.30;;
55186;SDS011;55457;52.002;5.464;2022-07-25T06:14:40;14.45;;;7.88;;
55186;SDS011;55457;52.002;5.464;2022-07-25T06:17:06;11.07;;;7.75;;
55186;SDS011;55457;52.002;5.464;2022-07-25T06:19:31;12.27;;;7.55;;
55186;SDS011;55457;52.002;5.464;2022-07-25T06:21:57;10.70;;;6.85;;
55186;SDS011;55457;52.002;5.464;2022-07-25T06:24:22;12.57;;;7.55;;
55186;SDS011;55457;52.002;5.464;2022-07-25T06:26:47;12.13;;;7.25;;
55186;SDS011;55457;52.002;5.464;2022-07-25T06:29:12;15.40;;;8.13;;
55186;SDS011;55457;52.002;5.464;2022-07-25T06:31:38;11.25;;;6.78;;
55186;SDS011;55457;52.002;5.464;2022-07-25T06:34:03;12.50;;;6.57;;
55186;SDS011;55457;52.002;5.464;2022-07-25T06:36:29;10.13;;;6.95;;
55186;SDS011;55457;52.002;5.464;2022-07-25T06:38:54;11.43;;;6.95;;
55186;SDS011;55457;52.002;5.464;2022-07-25T06:41:19;12.57;;;7.13;;
55186;SDS011;55457;52.002;5.464;2022-07-25T06:43:44;10.73;;;6.68;;
55186;SDS011;55457;52.002;5.464;2022-07-25T06:46:10;9.77;;;6.30;;
55186;SDS011;55457;52.002;5.464;2022-07-25T06:48:35;9.98;;;6.13;;
55186;SDS011;55457;52.002;5.464;2022-07-25T06:51:00;8.52;;;6.15;;
55186;SDS011;55457;52.002;5.464;2022-07-25T06:53:26;11.13;;;7.28;;
55186;SDS011;55457;52.002;5.464;2022-07-25T06:55:52;9.98;;;6.20;;
55186;SDS011;55457;52.002;5.464;2022-07-25T06:58:17;9.80;;;6.25;;
55186;SDS011;55457;52.002;5.464;2022-07-25T07:00:43;11.50;;;7.38;;
55186;SDS011;55457;52.002;5.464;2022-07-25T07:03:09;8.90;;;6.28;;
55186;SDS011;55457;52.002;5.464;2022-07-25T07:05:35;9.63;;;6.57;;
55186;SDS011;55457;52.002;5.464;2022-07-25T07:08:01;9.55;;;6.90;;
55186;SDS011;55457;52.002;5.464;2022-07-25T07:10:26;10.65;;;7.20;;
55186;SDS011;55457;52.002;5.464;2022-07-25T07:13:02;15.32;;;7.13;;
55186;SDS011;55457;52.002;5.464;2022-07-25T07:15:32;12.40;;;7.45;;
55186;SDS011;55457;52.002;5.464;2022-07-25T07:17:57;12.10;;;7.38;;
55186;SDS011;55457;52.002;5.464;2022-07-25T07:20:23;12.68;;;7.18;;
55186;SDS011;55457;52.002;5.464;2022-07-25T07:22:48;11.05;;;6.53;;
55186;SDS011;55457;52.002;5.464;2022-07-25T07:25:14;10.02;;;6.88;;
55186;SDS011;55457;52.002;5.464;2022-07-25T07:27:41;7.95;;;5.13;;
55186;SDS011;55457;52.002;5.464;2022-07-25T07:30:07;8.50;;;4.93;;
55186;SDS011;55457;52.002;5.464;2022-07-25T07:32:33;9.90;;;4.35;;
55186;SDS011;55457;52.002;5.464;2022-07-25T07:34:59;6.78;;;4.38;;
55186;SDS011;55457;52.002;5.464;2022-07-25T07:37:24;7.70;;;3.47;;
55186;SDS011;55457;52.002;5.464;2022-07-25T07:39:49;5.93;;;3.08;;
55186;SDS011;55457;52.002;5.464;2022-07-25T07:42:15;6.00;;;3.15;;
55186;SDS011;55457;52.002;5.464;2022-07-25T07:44:40;3.65;;;2.45;;
55186;SDS011;55457;52.002;5.464;2022-07-25T07:47:05;4.20;;;2.88;;
55186;SDS011;55457;52.002;5.464;2022-07-25T07:49:30;4.97;;;2.28;;
55186;SDS011;55457;52.002;5.464;2022-07-25T07:51:56;3.13;;;2.20;;
55186;SDS011;55457;52.002;5.464;2022-07-25T07:54:21;2.50;;;1.83;;
55186;SDS011;55457;52.002;5.464;2022-07-25T07:57:05;3.35;;;1.40;;
55186;SDS011;55457;52.002;5.464;2022-07-25T07:59:30;4.13;;;1.63;;
55186;SDS011;55457;52.002;5.464;2022-07-25T08:01:55;6.65;;;1.98;;
55186;SDS011;55457;52.002;5.464;2022-07-25T08:04:21;3.85;;;1.63;;
55186;SDS011;55457;52.002;5.464;2022-07-25T08:06:46;2.95;;;1.50;;
55186;SDS011;55457;52.002;5.464;2022-07-25T08:09:11;5.90;;;1.42;;
55186;SDS011;55457;52.002;5.464;2022-07-25T08:11:37;3.97;;;1.27;;
55186;SDS011;55457;52.002;5.464;2022-07-25T08:14:02;3.28;;;1.65;;
55186;SDS011;55457;52.002;5.464;2022-07-25T08:16:29;1.67;;;0.90;;
55186;SDS011;55457;52.002;5.464;2022-07-25T08:18:54;3.72;;;0.82;;
55186;SDS011;55457;52.002;5.464;2022-07-25T08:21:19;1.02;;;0.70;;
55186;SDS011;55457;52.002;5.464;2022-07-25T08:23:45;1.45;;;0.95;;
55186;SDS011;55457;52.002;5.464;2022-07-25T08:26:11;2.28;;;1.50;;
55186;SDS011;55457;52.002;5.464;2022-07-25T08:28:38;1.90;;;0.90;;
55186;SDS011;55457;52.002;5.464;2022-07-25T08:31:03;2.17;;;0.93;;
55186;SDS011;55457;52.002;5.464;2022-07-25T08:33:29;5.93;;;1.15;;
55186;SDS011;55457;52.002;5.464;2022-07-25T08:35:55;2.33;;;1.27;;
55186;SDS011;55457;52.002;5.464;2022-07-25T08:38:23;3.20;;;1.55;;
55186;SDS011;55457;52.002;5.464;2022-07-25T08:40:49;5.38;;;1.10;;
55186;SDS011;55457;52.002;5.464;2022-07-25T08:43:16;2.67;;;1.30;;
55186;SDS011;55457;52.002;5.464;2022-07-25T08:45:43;3.05;;;1.42;;
55186;SDS011;55457;52.002;5.464;2022-07-25T08:48:10;4.28;;;1.40;;
55186;SDS011;55457;52.002;5.464;2022-07-25T08:50:36;3.22;;;1.20;;
55186;SDS011;55457;52.002;5.464;2022-07-25T08:53:03;4.15;;;1.40;;
55186;SDS011;55457;52.002;5.464;2022-07-25T08:55:29;3.92;;;1.00;;
55186;SDS011;55457;52.002;5.464;2022-07-25T08:57:54;2.00;;;1.30;;
55186;SDS011;55457;52.002;5.464;2022-07-25T09:00:24;2.28;;;1.08;;
55186;SDS011;55457;52.002;5.464;2022-07-25T09:02:57;2.35;;;1.15;;
55186;SDS011;55457;52.002;5.464;2022-07-25T09:05:24;3.30;;;1.15;;
55186;SDS011;55457;52.002;5.464;2022-07-25T09:07:52;5.30;;;1.48;;
55186;SDS011;55457;52.002;5.464;2022-07-25T09:12:54;2.75;;;1.13;;
55186;SDS011;55457;52.002;5.464;2022-07-25T09:17:54;5.28;;;1.60;;
55186;SDS011;55457;52.002;5.464;2022-07-25T09:20:20;5.93;;;1.65;;
55186;SDS011;55457;52.002;5.464;2022-07-25T09:22:46;4.75;;;1.20;;
55186;SDS011;55457;52.002;5.464;2022-07-25T09:25:21;5.25;;;1.70;;
55186;SDS011;55457;52.002;5.464;2022-07-25T09:27:52;4.78;;;1.50;;
55186;SDS011;55457;52.002;5.464;2022-07-25T09:30:17;6.82;;;1.75;;
55186;SDS011;55457;52.002;5.464;2022-07-25T09:32:43;3.83;;;1.73;;
55186;SDS011;55457;52.002;5.464;2022-07-25T09:35:09;7.55;;;2.30;;
55186;SDS011;55457;52.002;5.464;2022-07-25T09:37:34;4.18;;;1.42;;
55186;SDS011;55457;52.002;5.464;2022-07-25T09:40:00;4.43;;;1.40;;
55186;SDS011;55457;52.002;5.464;2022-07-25T09:42:26;4.63;;;1.92;;
55186;SDS011;55457;52.002;5.464;2022-07-25T09:45:00;5.93;;;1.83;;
55186;SDS011;55457;52.002;5.464;2022-07-25T09:47:27;6.15;;;1.65;;
55186;SDS011;55457;52.002;5.464;2022-07-25T09:49:52;2.70;;;1.70;;
55186;SDS011;55457;52.002;5.464;2022-07-25T09:52:17;4.10;;;1.83;;
55186;SDS011;55457;52.002;5.464;2022-07-25T09:54:43;4.82;;;1.48;;
55186;SDS011;55457;52.002;5.464;2022-07-25T09:57:08;5.40;;;1.50;;
55186;SDS011;55457;52.002;5.464;2022-07-25T09:59:34;3.45;;;1.60;;
55186;SDS011;55457;52.002;5.464;2022-07-25T10:02:16;6.10;;;1.95;;
55186;SDS011;55457;52.002;5.464;2022-07-25T10:07:58;4.35;;;1.40;;
55186;SDS011;55457;52.002;5.464;2022-07-25T10:10:26;6.40;;;1.48;;
55186;SDS011;55457;52.002;5.464;2022-07-25T10:12:58;5.32;;;1.30;;
55186;SDS011;55457;52.002;5.464;2022-07-25T10:15:42;4.68;;;1.58;;
55186;SDS011;55457;52.002;5.464;2022-07-25T10:18:13;4.80;;;1.75;;
55186;SDS011;55457;52.002;5.464;2022-07-25T10:20:39;4.40;;;1.80;;
55186;SDS011;55457;52.002;5.464;2022-07-25T10:23:15;2.70;;;1.50;;
55186;SDS011;55457;52.002;5.464;2022-07-25T10:26:07;6.28;;;1.60;;
55186;SDS011;55457;52.002;5.464;2022-07-25T10:28:45;3.05;;;1.83;;
55186;SDS011;55457;52.002;5.464;2022-07-25T10:33:49;3.72;;;1.92;;
55186;SDS011;55457;52.002;5.464;2022-07-25T10:36:17;4.20;;;1.40;;
55186;SDS011;55457;52.002;5.464;2022-07-25T10:38:43;2.90;;;1.40;;
55186;SDS011;55457;52.002;5.464;2022-07-25T10:41:14;5.40;;;1.35;;
55186;SDS011;55457;52.002;5.464;2022-07-25T10:43:42;3.20;;;1.45;;
55186;SDS011;55457;52.002;5.464;2022-07-25T10:46:10;5.32;;;1.42;;
55186;SDS011;55457;52.002;5.464;2022-07-25T10:48:42;3.15;;;1.58;;
55186;SDS011;55457;52.002;5.464;2022-07-25T10:51:08;4.53;;;1.88;;
55186;SDS011;55457;52.002;5.464;2022-07-25T10:56:29;5.43;;;1.98;;
55186;SDS011;55457;52.002;5.464;2022-07-25T10:58:55;4.18;;;1.75;;
55186;SDS011;55457;52.002;5.464;2022-07-25T11:03:59;6.25;;;1.60;;
55186;SDS011;55457;52.002;5.464;2022-07-25T11:06:30;5.22;;;2.05;;
55186;SDS011;55457;52.002;5.464;2022-07-25T11:09:00;3.90;;;1.70;;
55186;SDS011;55457;52.002;5.464;2022-07-25T11:11:37;5.32;;;1.88;;
55186;SDS011;55457;52.002;5.464;2022-07-25T11:14:12;16.80;;;2.13;;
55186;SDS011;55457;52.002;5.464;2022-07-25T11:16:40;3.92;;;1.67;;
55186;SDS011;55457;52.002;5.464;2022-07-25T11:19:16;3.00;;;1.65;;
55186;SDS011;55457;52.002;5.464;2022-07-25T11:21:55;3.25;;;1.65;;
55186;SDS011;55457;52.002;5.464;2022-07-25T11:24:32;3.95;;;2.35;;
55186;SDS011;55457;52.002;5.464;2022-07-25T11:26:58;4.53;;;1.67;;
55186;SDS011;55457;52.002;5.464;2022-07-25T11:29:24;5.50;;;2.00;;
55186;SDS011;55457;52.002;5.464;2022-07-25T11:31:57;6.00;;;2.75;;
55186;SDS011;55457;52.002;5.464;2022-07-25T11:34:25;7.70;;;2.03;;
55186;SDS011;55457;52.002;5.464;2022-07-25T11:36:54;5.93;;;2.25;;
55186;SDS011;55457;52.002;5.464;2022-07-25T11:39:28;5.22;;;2.13;;
55186;SDS011;55457;52.002;5.464;2022-07-25T11:44:50;4.63;;;2.05;;
55186;SDS011;55457;52.002;5.464;2022-07-25T11:47:23;5.13;;;2.10;;
55186;SDS011;55457;52.002;5.464;2022-07-25T11:49:49;5.28;;;2.40;;
55186;SDS011;55457;52.002;5.464;2022-07-25T11:52:19;6.53;;;2.40;;
55186;SDS011;55457;52.002;5.464;2022-07-25T11:55:10;5.68;;;2.35;;
55186;SDS011;55457;52.002;5.464;2022-07-25T11:57:42;6.80;;;3.25;;
55186;SDS011;55457;52.002;5.464;2022-07-25T12:00:09;4.80;;;2.10;;
55186;SDS011;55457;52.002;5.464;2022-07-25T12:02:36;5.05;;;2.47;;
55186;SDS011;55457;52.002;5.464;2022-07-25T12:05:09;9.73;;;3.40;;
55186;SDS011;55457;52.002;5.464;2022-07-25T12:07:36;7.40;;;2.65;;
55186;SDS011;55457;52.002;5.464;2022-07-25T12:10:11;6.40;;;2.60;;
55186;SDS011;55457;52.002;5.464;2022-07-25T12:12:42;5.00;;;2.50;;
55186;SDS011;55457;52.002;5.464;2022-07-25T12:15:13;7.40;;;3.15;;
55186;SDS011;55457;52.002;5.464;2022-07-25T12:17:40;4.97;;;2.50;;
55186;SDS011;55457;52.002;5.464;2022-07-25T12:20:26;7.40;;;3.13;;
55186;SDS011;55457;52.002;5.464;2022-07-25T12:22:54;5.45;;;2.60;;
55186;SDS011;55457;52.002;5.464;2022-07-25T12:25:21;9.85;;;2.60;;
55186;SDS011;55457;52.002;5.464;2022-07-25T12:27:47;5.32;;;2.83;;
55186;SDS011;55457;52.002;5.464;2022-07-25T12:30:13;9.27;;;2.88;;
55186;SDS011;55457;52.002;5.464;2022-07-25T12:32:40;6.40;;;2.63;;
55186;SDS011;55457;52.002;5.464;2022-07-25T12:35:06;5.97;;;3.08;;
55186;SDS011;55457;52.002;5.464;2022-07-25T12:37:33;8.60;;;3.75;;
55186;SDS011;55457;52.002;5.464;2022-07-25T12:39:59;4.65;;;2.58;;
55186;SDS011;55457;52.002;5.464;2022-07-25T12:42:25;7.82;;;2.92;;
55186;SDS011;55457;52.002;5.464;2022-07-25T12:44:52;7.13;;;3.13;;
55186;SDS011;55457;52.002;5.464;2022-07-25T12:47:18;6.22;;;2.58;;
55186;SDS011;55457;52.002;5.464;2022-07-25T12:49:43;5.95;;;2.30;;
55186;SDS011;55457;52.002;5.464;2022-07-25T12:52:08;3.67;;;2.08;;
55186;SDS011;55457;52.002;5.464;2022-07-25T12:54:34;6.68;;;2.38;;
55186;SDS011;55457;52.002;5.464;2022-07-25T12:56:59;5.15;;;2.67;;
55186;SDS011;55457;52.002;5.464;2022-07-25T12:59:25;7.03;;;2.55;;
55186;SDS011;55457;52.002;5.464;2022-07-25T13:01:50;9.18;;;2.70;;
55186;SDS011;55457;52.002;5.464;2022-07-25T13:04:15;5.50;;;2.22;;
55186;SDS011;55457;52.002;5.464;2022-07-25T13:06:41;6.45;;;2.10;;
55186;SDS011;55457;52.002;5.464;2022-07-25T13:09:06;5.65;;;1.52;;
55186;SDS011;55457;52.002;5.464;2022-07-25T13:11:32;3.90;;;2.17;;
55186;SDS011;55457;52.002;5.464;2022-07-25T13:13:58;6.75;;;1.73;;
55186;SDS011;55457;52.002;5.464;2022-07-25T13:16:23;6.55;;;2.13;;
55186;SDS011;55457;52.002;5.464;2022-07-25T13:18:48;5.38;;;1.92;;
55186;SDS011;55457;52.002;5.464;2022-07-25T13:21:13;4.20;;;1.90;;
55186;SDS011;55457;52.002;5.464;2022-07-25T13:23:39;10.80;;;2.15;;
55186;SDS011;55457;52.002;5.464;2022-07-25T13:26:04;3.40;;;2.15;;
55186;SDS011;55457;52.002;5.464;2022-07-25T13:28:31;6.10;;;1.60;;
55186;SDS011;55457;52.002;5.464;2022-07-25T13:30:57;6.40;;;2.22;;
55186;SDS011;55457;52.002;5.464;2022-07-25T13:33:22;6.63;;;1.80;;
55186;SDS011;55457;52.002;5.464;2022-07-25T13:35:47;11.45;;;1.80;;
55186;SDS011;55457;52.002;5.464;2022-07-25T13:38:13;4.57;;;2.00;;
55186;SDS011;55457;52.002;5.464;2022-07-25T13:40:39;8.82;;;2.13;;
55186;SDS011;55457;52.002;5.464;2022-07-25T13:43:09;14.13;;;2.65;;
55186;SDS011;55457;52.002;5.464;2022-07-25T13:45:35;9.07;;;2.28;;
55186;SDS011;55457;52.002;5.464;2022-07-25T13:48:01;18.02;;;2.13;;
55186;SDS011;55457;52.002;5.464;2022-07-25T13:50:27;4.82;;;1.50;;
55186;SDS011;55457;52.002;5.464;2022-07-25T13:52:53;7.70;;;2.30;;
55186;SDS011;55457;52.002;5.464;2022-07-25T13:55:21;4.72;;;1.80;;
55186;SDS011;55457;52.002;5.464;2022-07-25T13:57:47;10.38;;;2.25;;
55186;SDS011;55457;52.002;5.464;2022-07-25T14:00:12;8.80;;;1.95;;
55186;SDS011;55457;52.002;5.464;2022-07-25T14:02:37;5.05;;;1.90;;
55186;SDS011;55457;52.002;5.464;2022-07-25T14:05:03;3.75;;;1.58;;
55186;SDS011;55457;52.002;5.464;2022-07-25T14:07:29;7.13;;;1.55;;
55186;SDS011;55457;52.002;5.464;2022-07-25T14:09:54;6.97;;;1.50;;
55186;SDS011;55457;52.002;5.464;2022-07-25T14:12:19;5.05;;;1.60;;
55186;SDS011;55457;52.002;5.464;2022-07-25T14:14:45;8.20;;;2.08;;
55186;SDS011;55457;52.002;5.464;2022-07-25T14:17:10;10.70;;;2.65;;
55186;SDS011;55457;52.002;5.464;2022-07-25T14:19:35;5.82;;;1.10;;
55186;SDS011;55457;52.002;5.464;2022-07-25T14:22:01;4.00;;;1.13;;
55186;SDS011;55457;52.002;5.464;2022-07-25T14:24:27;6.90;;;1.48;;
55186;SDS011;55457;52.002;5.464;2022-07-25T14:26:52;7.18;;;1.27;;
55186;SDS011;55457;52.002;5.464;2022-07-25T14:29:19;9.50;;;1.85;;
55186;SDS011;55457;52.002;5.464;2022-07-25T14:31:44;6.43;;;1.40;;
55186;SDS011;55457;52.002;5.464;2022-07-25T14:34:10;4.13;;;1.33;;
55186;SDS011;55457;52.002;5.464;2022-07-25T14:36:35;4.53;;;1.42;;
55186;SDS011;55457;52.002;5.464;2022-07-25T14:39:01;6.65;;;1.23;;
55186;SDS011;55457;52.002;5.464;2022-07-25T14:41:28;10.30;;;1.50;;
55186;SDS011;55457;52.002;5.464;2022-07-25T14:43:53;5.50;;;1.05;;
55186;SDS011;55457;52.002;5.464;2022-07-25T14:46:19;3.30;;;1.23;;
55186;SDS011;55457;52.002;5.464;2022-07-25T14:48:44;3.88;;;1.10;;
55186;SDS011;55457;52.002;5.464;2022-07-25T14:51:09;2.13;;;1.05;;
55186;SDS011;55457;52.002;5.464;2022-07-25T14:53:35;1.98;;;0.90;;
55186;SDS011;55457;52.002;5.464;2022-07-25T14:56:01;3.88;;;0.88;;
55186;SDS011;55457;52.002;5.464;2022-07-25T14:58:27;3.42;;;0.60;;